Time;durP1;ratioP1;P1;durP2;ratioP2;P2;SDS_P1;SDS_P2;PMS_P1;PMS_P2;Temp;Humidity;BMP_temperature;BMP_pressure;BME280_temperature;BME280_humidity;BME280_pressure;Samples;Min_cycle;Max_cycle;Signal;HPM_P1;HPM_P2
2023/06/12 00:01:14;;;;;;;4.80;4.30;;;;;;;;;;4974840;28;20447;-72
2023/06/12 00:03:42;;;;;;;4.50;4.10;;;;;;;;;;4979619;28;20445;-73
2023/06/12 00:06:12;;;;;;;4.90;4.50;;;;;;;;;;4999481;28;20484;-73
2023/06/12 00:08:41;;;;;;;4.70;4.30;;;;;;;;;;5042852;28;20475;-73
2023/06/12 00:11:12;;;;;;;5.07;4.67;;;;;;;;;;5006965;28;20456;-72
2023/06/12 00:13:39;;;;;;;5.00;4.60;;;;;;;;;;5020785;28;20427;-71
2023/06/12 00:16:06;;;;;;;5.63;5.00;;;;;;;;;;4962387;28;20453;-73
2023/06/12 00:18:33;;;;;;;4.80;4.40;;;;;;;;;;5008867;28;20450;-72
2023/06/12 00:21:01;;;;;;;4.60;4.30;;;;;;;;;;5003922;28;20494;-71
2023/06/12 00:23:29;;;;;;;5.55;5.00;;;;;;;;;;5011454;28;20801;-72
2023/06/12 00:25:56;;;;;;;5.50;5.00;;;;;;;;;;4991858;28;20422;-71
2023/06/12 00:28:23;;;;;;;5.40;4.95;;;;;;;;;;4993209;28;20448;-71
2023/06/12 00:30:50;;;;;;;5.10;4.70;;;;;;;;;;4965683;28;20440;-72
2023/06/12 00:33:18;;;;;;;5.22;4.78;;;;;;;;;;4968210;28;20436;-73
2023/06/12 00:35:45;;;;;;;5.40;4.90;;;;;;;;;;4992404;28;20467;-72
2023/06/12 00:38:12;;;;;;;5.40;5.00;;;;;;;;;;4997518;28;20439;-72
2023/06/12 00:40:40;;;;;;;5.50;5.00;;;;;;;;;;5011003;28;20424;-72
2023/06/12 00:43:08;;;;;;;5.70;5.20;;;;;;;;;;4970031;28;20457;-72
2023/06/12 00:45:36;;;;;;;5.32;4.93;;;;;;;;;;4992297;28;20467;-72
2023/06/12 00:48:03;;;;;;;5.93;5.43;;;;;;;;;;4977127;28;20523;-72
2023/06/12 00:50:31;;;;;;;5.40;4.90;;;;;;;;;;5048660;28;20428;-72
2023/06/12 00:52:58;;;;;;;4.97;4.57;;;;;;;;;;4983793;28;20439;-72
2023/06/12 00:55:26;;;;;;;5.20;4.70;;;;;;;;;;5030216;28;20443;-72
2023/06/12 00:57:54;;;;;;;5.30;4.90;;;;;;;;;;4980700;28;20454;-72
2023/06/12 01:00:21;;;;;;;5.80;5.30;;;;;;;;;;4965171;28;21001;-72
2023/06/12 01:02:51;;;;;;;5.70;4.90;;;;;;;;;;5008555;28;21025;-72
2023/06/12 01:05:20;;;;;;;5.20;4.70;;;;;;;;;;4968432;28;20486;-72
2023/06/12 01:07:52;;;;;;;5.28;4.78;;;;;;;;;;4974005;28;20436;-71
2023/06/12 01:10:21;;;;;;;5.10;4.70;;;;;;;;;;5020024;28;20419;-72
2023/06/12 01:12:49;;;;;;;5.53;4.95;;;;;;;;;;4972829;28;20430;-72
2023/06/12 01:15:18;;;;;;;5.30;4.80;;;;;;;;;;4973210;28;20922;-72
2023/06/12 01:17:45;;;;;;;5.47;5.00;;;;;;;;;;4984874;28;21066;-71
2023/06/12 01:20:14;;;;;;;5.20;4.80;;;;;;;;;;4972532;28;20530;-73
2023/06/12 01:22:44;;;;;;;5.40;4.90;;;;;;;;;;5020071;28;20912;-73
2023/06/12 01:25:25;;;;;;;5.43;4.90;;;;;;;;;;4967103;28;20436;-72
2023/06/12 01:28:00;;;;;;;5.65;4.50;;;;;;;;;;4967773;28;20485;-73
2023/06/12 01:30:40;;;;;;;4.93;4.53;;;;;;;;;;4981635;28;20441;-72
2023/06/12 01:33:09;;;;;;;5.33;4.83;;;;;;;;;;5002983;28;20427;-73
2023/06/12 01:35:38;;;;;;;6.20;5.13;;;;;;;;;;4954907;28;20431;-71
2023/06/12 01:38:08;;;;;;;5.40;4.90;;;;;;;;;;5013753;28;20909;-71
2023/06/12 01:40:36;;;;;;;5.45;4.95;;;;;;;;;;4997700;28;20738;-71
2023/06/12 01:43:03;;;;;;;6.10;5.50;;;;;;;;;;5030792;28;20447;-72
2023/06/12 01:45:31;;;;;;;5.38;4.88;;;;;;;;;;4961551;28;20451;-71
2023/06/12 01:47:58;;;;;;;5.50;5.00;;;;;;;;;;4978425;28;20423;-72
2023/06/12 01:50:27;;;;;;;6.10;5.50;;;;;;;;;;4966317;28;20871;-72
2023/06/12 01:52:54;;;;;;;5.65;5.15;;;;;;;;;;4977449;28;20455;-72
2023/06/12 01:55:21;;;;;;;6.30;5.40;;;;;;;;;;4966245;28;21034;-72
2023/06/12 01:57:49;;;;;;;5.28;4.80;;;;;;;;;;4985107;28;20443;-73
2023/06/12 02:00:17;;;;;;;5.78;5.18;;;;;;;;;;5009465;28;20715;-72
2023/06/12 02:02:44;;;;;;;5.57;5.05;;;;;;;;;;4983553;28;20491;-72
2023/06/12 02:05:11;;;;;;;5.53;5.03;;;;;;;;;;5012758;28;20440;-73
2023/06/12 02:07:39;;;;;;;6.00;5.50;;;;;;;;;;5019235;28;20432;-72
2023/06/12 02:10:07;;;;;;;6.22;5.63;;;;;;;;;;4991099;28;20640;-72
2023/06/12 02:12:34;;;;;;;6.40;5.80;;;;;;;;;;5053010;28;20677;-72
2023/06/12 02:15:01;;;;;;;6.40;5.80;;;;;;;;;;5012186;28;20432;-71
2023/06/12 02:17:29;;;;;;;6.50;5.90;;;;;;;;;;4968355;28;20444;-71
2023/06/12 02:19:57;;;;;;;6.03;5.53;;;;;;;;;;5006535;28;20440;-72
2023/06/12 02:22:24;;;;;;;5.90;5.40;;;;;;;;;;5043551;28;20899;-73
2023/06/12 02:24:52;;;;;;;5.80;5.30;;;;;;;;;;5023989;28;20436;-72
2023/06/12 02:27:20;;;;;;;6.00;5.50;;;;;;;;;;5030809;28;20447;-72
2023/06/12 02:29:47;;;;;;;6.10;5.60;;;;;;;;;;4998587;28;20535;-71
2023/06/12 02:32:14;;;;;;;6.00;5.40;;;;;;;;;;5022154;28;20436;-71
2023/06/12 02:34:41;;;;;;;7.32;5.90;;;;;;;;;;5006502;28;20507;-72
2023/06/12 02:37:10;;;;;;;6.30;5.80;;;;;;;;;;4969125;28;20440;-72
2023/06/12 02:39:37;;;;;;;6.35;5.85;;;;;;;;;;5028687;28;20466;-72
2023/06/12 02:42:06;;;;;;;6.10;5.50;;;;;;;;;;5004760;28;20438;-73
2023/06/12 02:44:33;;;;;;;6.20;5.70;;;;;;;;;;5003651;28;20443;-73
2023/06/12 02:47:00;;;;;;;6.55;5.90;;;;;;;;;;4991867;28;20447;-71
2023/06/12 02:49:28;;;;;;;6.18;5.68;;;;;;;;;;5010403;28;20435;-72
2023/06/12 02:51:55;;;;;;;5.50;5.10;;;;;;;;;;5020133;28;20925;-72
2023/06/12 02:54:24;;;;;;;6.40;5.80;;;;;;;;;;5004653;28;20902;-72
2023/06/12 02:56:52;;;;;;;6.30;5.70;;;;;;;;;;4978772;28;20515;-71
2023/06/12 02:59:21;;;;;;;6.18;5.57;;;;;;;;;;4989754;28;20493;-71
2023/06/12 03:01:48;;;;;;;6.40;5.80;;;;;;;;;;5005437;28;20817;-71
2023/06/12 03:04:18;;;;;;;6.60;6.00;;;;;;;;;;4995738;28;20773;-71
2023/06/12 03:06:45;;;;;;;6.13;5.60;;;;;;;;;;4981033;28;20486;-71
2023/06/12 03:09:15;;;;;;;5.40;5.00;;;;;;;;;;5007867;28;20440;-72
2023/06/12 03:11:43;;;;;;;6.10;5.50;;;;;;;;;;5055700;28;20412;-71
2023/06/12 03:14:10;;;;;;;6.70;5.60;;;;;;;;;;5009730;28;20813;-72
2023/06/12 03:16:38;;;;;;;5.68;5.18;;;;;;;;;;4965349;28;20436;-71
2023/06/12 03:19:05;;;;;;;6.40;5.88;;;;;;;;;;4972273;28;20799;-73
2023/06/12 03:21:32;;;;;;;5.47;5.05;;;;;;;;;;4970013;28;20451;-72
2023/06/12 03:24:00;;;;;;;5.77;5.37;;;;;;;;;;5047600;28;20412;-72
2023/06/12 03:26:30;;;;;;;6.40;5.90;;;;;;;;;;5038664;28;20470;-71
2023/06/12 03:28:57;;;;;;;6.80;6.20;;;;;;;;;;5023066;28;20431;-71
2023/06/12 03:31:26;;;;;;;6.15;5.65;;;;;;;;;;5027309;28;20940;-71
2023/06/12 03:33:55;;;;;;;6.40;5.80;;;;;;;;;;4998719;28;20428;-73
2023/06/12 03:36:23;;;;;;;6.33;5.73;;;;;;;;;;4996197;28;20474;-72
2023/06/12 03:38:50;;;;;;;7.88;6.53;;;;;;;;;;5030332;28;20423;-75
2023/06/12 03:41:18;;;;;;;6.28;5.72;;;;;;;;;;4997054;28;20890;-71
2023/06/12 03:43:45;;;;;;;7.10;6.50;;;;;;;;;;5017234;28;20441;-73
2023/06/12 03:46:12;;;;;;;7.15;6.45;;;;;;;;;;5016313;28;20921;-71
2023/06/12 03:48:39;;;;;;;7.72;6.93;;;;;;;;;;5013169;28;20443;-72
2023/06/12 03:51:07;;;;;;;7.53;6.93;;;;;;;;;;4968170;28;20447;-71
2023/06/12 03:53:34;;;;;;;7.30;6.70;;;;;;;;;;5013712;28;20582;-71
2023/06/12 03:56:01;;;;;;;7.38;6.68;;;;;;;;;;5014770;28;20432;-71
2023/06/12 03:58:28;;;;;;;9.15;6.95;;;;;;;;;;4970151;28;20439;-71
2023/06/12 04:00:56;;;;;;;7.13;6.43;;;;;;;;;;4977790;28;20431;-72
2023/06/12 04:03:24;;;;;;;6.85;6.20;;;;;;;;;;5006983;28;20446;-72
2023/06/12 04:05:51;;;;;;;7.40;6.50;;;;;;;;;;4971347;28;20456;-72
2023/06/12 04:08:20;;;;;;;8.07;7.32;;;;;;;;;;4964675;28;20436;-73
2023/06/12 04:10:47;;;;;;;8.32;7.35;;;;;;;;;;4982236;28;20507;-73
2023/06/12 04:13:14;;;;;;;7.95;6.90;;;;;;;;;;4972534;28;20440;-71
2023/06/12 04:15:41;;;;;;;7.35;6.75;;;;;;;;;;5000392;28;20440;-71
2023/06/12 04:18:09;;;;;;;7.40;6.80;;;;;;;;;;5015182;28;20438;-71
2023/06/12 04:20:38;;;;;;;9.00;6.40;;;;;;;;;;5003969;28;20423;-71
2023/06/12 04:23:11;;;;;;;7.50;6.70;;;;;;;;;;5020467;28;20440;-72
2023/06/12 04:25:42;;;;;;;9.07;6.28;;;;;;;;;;5007156;28;20938;-72
2023/06/12 04:28:13;;;;;;;6.45;5.93;;;;;;;;;;5025861;28;20458;-72
2023/06/12 04:30:41;;;;;;;7.32;6.72;;;;;;;;;;5011333;28;20539;-72
2023/06/12 04:33:09;;;;;;;7.15;6.45;;;;;;;;;;4999669;28;20506;-72
2023/06/12 04:35:37;;;;;;;7.00;6.40;;;;;;;;;;4956238;28;20942;-72
2023/06/12 04:38:05;;;;;;;7.10;6.45;;;;;;;;;;5008884;28;20432;-71
2023/06/12 04:40:36;;;;;;;6.60;6.00;;;;;;;;;;5012019;28;20443;-71
2023/06/12 04:43:06;;;;;;;7.22;6.30;;;;;;;;;;4964623;28;20543;-73
2023/06/12 04:45:33;;;;;;;7.10;6.38;;;;;;;;;;4998963;28;20440;-68
2023/06/12 04:48:01;;;;;;;7.60;6.35;;;;;;;;;;5016264;28;20431;-68
2023/06/12 04:50:30;;;;;;;9.27;7.20;;;;;;;;;;4973014;28;20463;-67
2023/06/12 04:52:57;;;;;;;7.47;6.78;;;;;;;;;;5033181;28;20423;-67
2023/06/12 04:55:28;;;;;;;7.30;6.40;;;;;;;;;;5016290;28;20438;-68
2023/06/12 04:57:57;;;;;;;11.50;6.60;;;;;;;;;;5020028;28;20928;-67
2023/06/12 05:00:25;;;;;;;9.30;7.10;;;;;;;;;;5012902;28;20460;-69
2023/06/12 05:02:52;;;;;;;9.48;7.10;;;;;;;;;;4969259;28;20484;-67
2023/06/12 05:05:21;;;;;;;8.55;6.93;;;;;;;;;;5011100;28;20455;-68
2023/06/12 05:07:48;;;;;;;7.47;6.72;;;;;;;;;;4960607;28;20446;-68
2023/06/12 05:10:15;;;;;;;8.82;7.28;;;;;;;;;;4971290;28;20448;-68
2023/06/12 05:12:43;;;;;;;8.82;7.00;;;;;;;;;;4983365;28;20450;-70
2023/06/12 05:15:10;;;;;;;9.47;7.60;;;;;;;;;;4964244;28;20436;-70
2023/06/12 05:17:39;;;;;;;7.32;6.32;;;;;;;;;;4963313;28;20499;-68
2023/06/12 05:20:08;;;;;;;9.90;7.10;;;;;;;;;;4968336;28;20440;-68
2023/06/12 05:22:36;;;;;;;7.40;6.60;;;;;;;;;;4966101;28;20938;-69
2023/06/12 05:25:04;;;;;;;6.85;6.13;;;;;;;;;;4963361;28;20992;-69
2023/06/12 05:27:31;;;;;;;7.65;6.95;;;;;;;;;;4966819;28;20436;-70
2023/06/12 05:29:58;;;;;;;7.60;6.80;;;;;;;;;;5037716;28;20542;-68
2023/06/12 05:32:25;;;;;;;7.45;6.35;;;;;;;;;;5010662;28;20431;-70
2023/06/12 05:34:53;;;;;;;7.13;6.50;;;;;;;;;;5009016;28;20431;-70
2023/06/12 05:37:20;;;;;;;8.70;6.75;;;;;;;;;;4971212;28;20446;-70
2023/06/12 05:39:48;;;;;;;7.50;6.80;;;;;;;;;;4959381;28;20523;-69
2023/06/12 05:42:15;;;;;;;7.80;6.60;;;;;;;;;;4993711;28;20440;-70
2023/06/12 05:44:43;;;;;;;7.15;6.45;;;;;;;;;;4966306;28;20447;-69
2023/06/12 05:47:10;;;;;;;7.28;6.57;;;;;;;;;;4989174;28;20439;-69
2023/06/12 05:49:37;;;;;;;6.50;5.90;;;;;;;;;;4969967;28;20434;-71
2023/06/12 05:52:07;;;;;;;6.38;5.78;;;;;;;;;;4968727;28;20432;-69
2023/06/12 05:54:34;;;;;;;6.60;6.10;;;;;;;;;;4974754;28;20436;-69
2023/06/12 05:57:02;;;;;;;6.40;5.80;;;;;;;;;;4973295;28;20450;-69
2023/06/12 05:59:29;;;;;;;6.95;6.35;;;;;;;;;;4994112;28;20430;-69
2023/06/12 06:01:57;;;;;;;6.65;6.05;;;;;;;;;;5009134;28;20517;-69
2023/06/12 06:04:24;;;;;;;7.00;6.40;;;;;;;;;;4992037;28;20961;-70
2023/06/12 06:06:52;;;;;;;7.20;6.50;;;;;;;;;;5059684;28;20412;-69
2023/06/12 06:09:21;;;;;;;6.70;6.10;;;;;;;;;;4980459;28;20597;-70
2023/06/12 06:14:15;;;;;;;6.80;6.15;;;;;;;;;;5123808;23;20924;-70
2023/06/12 06:16:42;;;;;;;6.40;5.80;;;;;;;;;;5115052;27;20432;-68
2023/06/12 06:19:09;;;;;;;6.20;5.60;;;;;;;;;;5116481;27;20418;-68
2023/06/12 06:21:36;;;;;;;5.82;5.32;;;;;;;;;;5124218;27;20435;-69
2023/06/12 06:24:03;;;;;;;7.00;6.30;;;;;;;;;;5113432;27;20821;-70
2023/06/12 06:26:32;;;;;;;6.20;5.70;;;;;;;;;;5107805;28;20416;-71
2023/06/12 06:28:59;;;;;;;6.18;5.68;;;;;;;;;;5108420;28;20963;-68
2023/06/12 06:31:27;;;;;;;6.15;5.65;;;;;;;;;;5105875;28;20428;-69
2023/06/12 06:33:54;;;;;;;6.30;5.80;;;;;;;;;;5102129;27;20912;-68
2023/06/12 06:36:23;;;;;;;5.75;5.25;;;;;;;;;;5105535;27;20402;-67
2023/06/12 06:38:51;;;;;;;6.40;5.80;;;;;;;;;;5102297;28;20420;-67
2023/06/12 06:41:18;;;;;;;6.00;5.50;;;;;;;;;;5107876;28;20416;-67
2023/06/12 06:43:47;;;;;;;5.30;4.90;;;;;;;;;;5099674;28;20424;-67
2023/06/12 06:46:14;;;;;;;5.88;5.28;;;;;;;;;;5104772;27;20811;-67
2023/06/12 06:48:41;;;;;;;5.80;5.30;;;;;;;;;;5108743;27;20901;-68
2023/06/12 06:51:08;;;;;;;6.10;5.60;;;;;;;;;;5106309;28;20435;-68
2023/06/12 06:53:35;;;;;;;6.00;5.22;;;;;;;;;;5095340;28;20446;-67
2023/06/12 06:56:03;;;;;;;5.85;5.30;;;;;;;;;;5093714;27;20429;-66
2023/06/12 06:58:30;;;;;;;5.80;5.30;;;;;;;;;;5104784;28;20420;-67
2023/06/12 07:00:58;;;;;;;6.00;5.40;;;;;;;;;;5092186;28;20504;-67
2023/06/12 07:03:27;;;;;;;5.68;5.20;;;;;;;;;;5105260;28;20789;-65
2023/06/12 07:05:54;;;;;;;5.63;5.13;;;;;;;;;;5106246;27;20491;-69
2023/06/12 07:08:21;;;;;;;5.78;5.30;;;;;;;;;;5104917;28;20421;-68
2023/06/12 07:10:49;;;;;;;5.85;5.35;;;;;;;;;;5098004;28;20428;-67
2023/06/12 07:13:16;;;;;;;5.70;5.20;;;;;;;;;;5094835;28;20433;-67
2023/06/12 07:15:43;;;;;;;5.57;5.07;;;;;;;;;;5111288;27;20556;-67
2023/06/12 07:18:11;;;;;;;5.53;5.03;;;;;;;;;;5104104;27;20434;-67
2023/06/12 07:20:38;;;;;;;5.35;4.90;;;;;;;;;;5105700;27;20433;-67
2023/06/12 07:23:05;;;;;;;5.90;5.40;;;;;;;;;;5115533;27;20416;-67
2023/06/12 07:25:33;;;;;;;5.90;5.40;;;;;;;;;;5113864;27;20433;-67
2023/06/12 07:28:02;;;;;;;5.70;5.07;;;;;;;;;;5105682;28;20444;-67
2023/06/12 07:30:30;;;;;;;5.57;5.07;;;;;;;;;;5092654;27;20424;-66
2023/06/12 07:32:57;;;;;;;5.70;5.20;;;;;;;;;;5095367;27;20453;-65
2023/06/12 07:35:26;;;;;;;5.68;5.10;;;;;;;;;;5105886;28;20412;-69
2023/06/12 07:37:53;;;;;;;6.40;5.30;;;;;;;;;;5103449;28;20508;-68
2023/06/12 07:40:20;;;;;;;5.63;5.13;;;;;;;;;;5109604;27;20508;-67
2023/06/12 07:42:48;;;;;;;5.60;5.10;;;;;;;;;;5097407;27;20777;-66
2023/06/12 07:45:15;;;;;;;5.35;4.95;;;;;;;;;;5100238;28;20480;-68
2023/06/12 07:47:43;;;;;;;5.50;5.00;;;;;;;;;;5108456;28;20420;-67
2023/06/12 07:50:10;;;;;;;5.50;5.00;;;;;;;;;;5117327;27;20422;-67
2023/06/12 07:52:39;;;;;;;6.15;5.30;;;;;;;;;;5105147;28;20515;-67
2023/06/12 07:55:06;;;;;;;5.53;4.60;;;;;;;;;;5095989;28;20438;-66
2023/06/12 07:57:34;;;;;;;5.20;4.72;;;;;;;;;;5096829;28;20430;-65
2023/06/12 08:00:05;;;;;;;4.97;4.68;;;;;;;;;;5116817;27;20420;-66
2023/06/12 08:02:33;;;;;;;5.90;4.80;;;;;;;;;;5095038;27;20504;-66
2023/06/12 08:05:00;;;;;;;5.00;4.60;;;;;;;;;;5104393;28;20428;-66
2023/06/12 08:07:28;;;;;;;5.32;4.82;;;;;;;;;;5118490;27;20871;-68
2023/06/12 08:09:56;;;;;;;5.57;5.07;;;;;;;;;;5104196;27;20482;-66
2023/06/12 08:12:23;;;;;;;5.20;4.80;;;;;;;;;;5114300;27;20559;-66
2023/06/12 08:14:51;;;;;;;5.13;4.72;;;;;;;;;;5102077;28;20420;-67
2023/06/12 08:17:20;;;;;;;5.10;4.80;;;;;;;;;;5102124;28;20924;-67
2023/06/12 08:19:47;;;;;;;5.20;4.80;;;;;;;;;;5105338;28;20424;-67
2023/06/12 08:22:15;;;;;;;5.45;4.50;;;;;;;;;;5103448;27;20410;-67
2023/06/12 08:24:44;;;;;;;5.00;4.70;;;;;;;;;;5106100;28;20419;-67
2023/06/12 08:27:12;;;;;;;5.10;4.70;;;;;;;;;;5125409;27;20897;-67
2023/06/12 08:29:40;;;;;;;5.07;4.57;;;;;;;;;;5102815;27;20440;-67
2023/06/12 08:32:08;;;;;;;5.00;4.60;;;;;;;;;;5104607;28;20535;-67
2023/06/12 08:34:35;;;;;;;5.32;4.93;;;;;;;;;;5108748;27;20433;-66
2023/06/12 08:37:02;;;;;;;5.38;4.97;;;;;;;;;;5101912;28;20903;-67
2023/06/12 08:39:29;;;;;;;6.57;5.03;;;;;;;;;;5107575;28;20429;-67
2023/06/12 08:42:00;;;;;;;5.20;4.70;;;;;;;;;;5103557;28;20608;-67
2023/06/12 08:44:29;;;;;;;5.50;5.10;;;;;;;;;;5105226;28;20424;-66
2023/06/12 08:46:57;;;;;;;5.60;5.10;;;;;;;;;;5102266;27;20420;-66
2023/06/12 08:49:25;;;;;;;4.97;4.68;;;;;;;;;;5101939;28;20447;-67
2023/06/12 08:51:52;;;;;;;5.20;4.80;;;;;;;;;;5098862;28;20547;-67
2023/06/12 08:54:19;;;;;;;5.13;4.80;;;;;;;;;;5108260;28;20918;-67
2023/06/12 08:56:47;;;;;;;5.10;4.70;;;;;;;;;;5100562;28;20540;-67
2023/06/12 08:59:14;;;;;;;5.00;4.53;;;;;;;;;;5110499;28;20424;-67
2023/06/12 09:01:45;;;;;;;5.20;4.70;;;;;;;;;;5108443;28;20916;-67
2023/06/12 09:04:18;;;;;;;6.00;4.65;;;;;;;;;;5111225;28;20464;-66
2023/06/12 09:06:45;;;;;;;4.80;4.40;;;;;;;;;;5107242;28;20469;-65
2023/06/12 09:09:13;;;;;;;5.10;4.70;;;;;;;;;;5118266;28;20431;-71
2023/06/12 09:11:40;;;;;;;4.18;3.88;;;;;;;;;;5098691;28;20424;-70
2023/06/12 09:14:08;;;;;;;4.40;4.00;;;;;;;;;;5097864;28;20965;-71
2023/06/12 09:16:35;;;;;;;4.13;3.83;;;;;;;;;;5102208;28;20432;-68
2023/06/12 09:19:04;;;;;;;5.15;4.65;;;;;;;;;;5106243;28;20420;-67
2023/06/12 09:21:31;;;;;;;5.25;4.75;;;;;;;;;;5102741;28;20422;-68
2023/06/12 09:23:58;;;;;;;4.80;4.50;;;;;;;;;;5105817;28;20427;-69
2023/06/12 09:26:25;;;;;;;5.00;4.60;;;;;;;;;;5101886;28;20428;-69
2023/06/12 09:28:52;;;;;;;4.70;4.30;;;;;;;;;;5111603;27;20713;-68
2023/06/12 09:31:19;;;;;;;5.10;4.70;;;;;;;;;;5103330;27;21595;-68
2023/06/12 09:33:46;;;;;;;5.30;4.90;;;;;;;;;;5115934;27;20407;-69
2023/06/12 09:36:15;;;;;;;4.72;4.22;;;;;;;;;;5095318;28;20433;-68
2023/06/12 09:38:42;;;;;;;5.20;4.80;;;;;;;;;;5111396;28;20411;-69
2023/06/12 09:41:10;;;;;;;4.50;4.15;;;;;;;;;;5108854;28;20447;-68
2023/06/12 09:43:37;;;;;;;4.97;4.47;;;;;;;;;;5109555;28;20904;-67
2023/06/12 09:46:05;;;;;;;4.70;4.40;;;;;;;;;;5108682;28;20428;-69
2023/06/12 09:48:35;;;;;;;4.78;4.38;;;;;;;;;;5101793;27;20796;-70
2023/06/12 09:51:05;;;;;;;5.17;4.77;;;;;;;;;;5110503;28;20912;-69
2023/06/12 09:53:36;;;;;;;4.75;4.45;;;;;;;;;;5120737;27;20430;-69
2023/06/12 09:56:05;;;;;;;4.85;4.53;;;;;;;;;;5113374;27;20431;-69
2023/06/12 09:58:33;;;;;;;4.90;4.60;;;;;;;;;;5108092;27;20420;-69
2023/06/12 10:01:01;;;;;;;4.60;4.30;;;;;;;;;;5108051;27;20428;-70
2023/06/12 10:03:30;;;;;;;4.70;4.40;;;;;;;;;;5116751;27;20499;-70
2023/06/12 10:05:59;;;;;;;4.63;4.20;;;;;;;;;;5102401;27;20432;-70
2023/06/12 10:08:29;;;;;;;4.45;4.15;;;;;;;;;;5109717;27;20794;-70
2023/06/12 10:10:58;;;;;;;4.20;3.90;;;;;;;;;;5106684;28;20424;-70
2023/06/12 10:13:26;;;;;;;4.30;4.00;;;;;;;;;;5111000;28;20434;-70
2023/06/12 10:15:54;;;;;;;5.13;4.20;;;;;;;;;;5095538;27;20428;-71
2023/06/12 10:18:22;;;;;;;4.50;3.72;;;;;;;;;;5101567;28;20905;-71
2023/06/12 10:20:50;;;;;;;4.03;3.72;;;;;;;;;;5109548;28;20428;-68
2023/06/12 10:23:17;;;;;;;4.03;3.72;;;;;;;;;;5111034;27;20439;-71
2023/06/12 10:25:45;;;;;;;4.30;4.00;;;;;;;;;;5107119;28;20433;-70
2023/06/12 10:28:13;;;;;;;4.03;3.72;;;;;;;;;;5105128;28;20894;-68
2023/06/12 10:31:01;;;;;;;3.88;3.58;;;;;;;;;;5108604;27;20426;-70
2023/06/12 10:33:28;;;;;;;4.15;3.85;;;;;;;;;;5106579;28;20433;-70
2023/06/12 10:35:55;;;;;;;4.60;4.20;;;;;;;;;;5106281;28;20421;-69
2023/06/12 10:38:23;;;;;;;8.10;7.60;;;;;;;;;;5108251;28;20408;-68
2023/06/12 10:40:51;;;;;;;4.50;4.10;;;;;;;;;;5103559;28;20420;-69
2023/06/12 10:43:26;;;;;;;4.18;3.88;;;;;;;;;;5106490;27;20512;-70
2023/06/12 10:45:57;;;;;;;4.22;3.92;;;;;;;;;;5104163;28;20522;-69
2023/06/12 10:48:25;;;;;;;3.92;3.65;;;;;;;;;;5096341;28;20503;-69
2023/06/12 10:50:54;;;;;;;3.80;3.50;;;;;;;;;;5108663;27;20423;-69
2023/06/12 10:53:22;;;;;;;3.80;3.50;;;;;;;;;;5103934;28;20429;-73
2023/06/12 10:55:51;;;;;;;4.00;3.80;;;;;;;;;;5106487;27;20424;-72
2023/06/12 10:58:21;;;;;;;3.97;3.67;;;;;;;;;;5108146;27;20461;-72
2023/06/12 11:00:51;;;;;;;4.00;3.70;;;;;;;;;;5099863;27;20435;-71
2023/06/12 11:03:18;;;;;;;4.33;3.93;;;;;;;;;;5110919;28;20774;-72
2023/06/12 11:05:48;;;;;;;3.80;3.50;;;;;;;;;;5104182;27;20794;-72
2023/06/12 11:08:15;;;;;;;3.30;3.10;;;;;;;;;;5102661;28;20459;-72
2023/06/12 11:10:43;;;;;;;3.92;3.63;;;;;;;;;;5103465;27;20503;-72
2023/06/12 11:13:10;;;;;;;4.07;3.85;;;;;;;;;;5103303;28;20881;-75
2023/06/12 11:15:46;;;;;;;3.80;3.50;;;;;;;;;;5095398;28;20441;-72
2023/06/12 11:18:15;;;;;;;3.95;3.65;;;;;;;;;;5108436;28;20481;-72
2023/06/12 11:20:42;;;;;;;3.70;3.50;;;;;;;;;;5109015;27;20429;-73
2023/06/12 11:23:10;;;;;;;3.63;3.40;;;;;;;;;;5115583;27;20410;-73
2023/06/12 11:25:43;;;;;;;4.22;3.83;;;;;;;;;;5109163;27;20433;-73
2023/06/12 11:28:11;;;;;;;4.10;3.80;;;;;;;;;;5103705;28;20921;-73
2023/06/12 11:30:39;;;;;;;4.00;3.70;;;;;;;;;;5112926;27;20454;-73
2023/06/12 11:33:08;;;;;;;4.30;3.80;;;;;;;;;;5120030;27;20423;-71
2023/06/12 11:35:41;;;;;;;4.50;4.20;;;;;;;;;;5099638;28;20424;-73
2023/06/12 11:38:08;;;;;;;3.67;3.47;;;;;;;;;;5102445;28;20562;-73
2023/06/12 11:40:35;;;;;;;3.80;3.50;;;;;;;;;;5095266;28;20441;-73
2023/06/12 11:43:02;;;;;;;4.00;3.70;;;;;;;;;;5105919;27;20424;-73
2023/06/12 11:45:31;;;;;;;3.40;3.20;;;;;;;;;;5104340;27;20438;-73
2023/06/12 11:47:59;;;;;;;3.30;3.10;;;;;;;;;;5106209;28;20456;-73
2023/06/12 11:50:26;;;;;;;3.45;3.15;;;;;;;;;;5110121;28;20431;-73
2023/06/12 11:52:55;;;;;;;3.30;3.00;;;;;;;;;;5113771;27;20472;-73
2023/06/12 11:55:23;;;;;;;2.65;2.50;;;;;;;;;;5103270;27;20492;-74
2023/06/12 11:57:51;;;;;;;2.90;2.70;;;;;;;;;;5110196;27;20933;-73
2023/06/12 12:00:20;;;;;;;3.00;2.80;;;;;;;;;;5109386;27;20424;-74
2023/06/12 12:02:49;;;;;;;2.90;2.70;;;;;;;;;;5098547;28;20484;-73
2023/06/12 12:05:18;;;;;;;2.60;2.40;;;;;;;;;;5103446;28;20485;-75
2023/06/12 12:07:46;;;;;;;2.80;2.50;;;;;;;;;;5104245;27;20435;-74
2023/06/12 12:10:14;;;;;;;2.93;2.73;;;;;;;;;;5097444;28;20435;-73
2023/06/12 12:12:42;;;;;;;2.90;2.70;;;;;;;;;;5096914;28;20810;-72
2023/06/12 12:15:10;;;;;;;3.00;2.80;;;;;;;;;;5099932;28;20424;-73
2023/06/12 12:17:38;;;;;;;2.90;2.60;;;;;;;;;;5098500;27;20773;-71
2023/06/12 12:20:07;;;;;;;2.60;2.50;;;;;;;;;;5103610;28;20455;-73
2023/06/12 12:22:38;;;;;;;2.50;2.30;;;;;;;;;;5110351;23;20822;-78
2023/06/12 12:25:05;;;;;;;2.70;2.50;;;;;;;;;;5104358;28;20907;-74
2023/06/12 12:27:34;;;;;;;2.60;2.40;;;;;;;;;;5105969;28;20427;-75
2023/06/12 12:30:01;;;;;;;2.30;2.20;;;;;;;;;;5107245;28;20408;-76
2023/06/12 12:32:28;;;;;;;2.35;2.25;;;;;;;;;;5103675;28;20435;-75
2023/06/12 12:34:57;;;;;;;2.50;2.30;;;;;;;;;;5100805;28;20404;-75
2023/06/12 12:37:24;;;;;;;2.92;2.72;;;;;;;;;;5108936;28;20419;-78
2023/06/12 12:39:51;;;;;;;3.27;2.97;;;;;;;;;;5098787;27;20428;-76
2023/06/12 12:42:18;;;;;;;3.50;3.13;;;;;;;;;;5106436;28;20432;-74
2023/06/12 12:44:46;;;;;;;3.20;2.90;;;;;;;;;;5109128;28;20507;-75
2023/06/12 12:47:14;;;;;;;3.40;3.20;;;;;;;;;;5105532;28;20933;-74
2023/06/12 12:49:41;;;;;;;3.78;3.47;;;;;;;;;;5096924;28;20433;-76
2023/06/12 12:52:09;;;;;;;3.20;3.00;;;;;;;;;;5097755;27;20424;-76
2023/06/12 12:54:36;;;;;;;3.05;2.85;;;;;;;;;;5106178;28;20515;-74
2023/06/12 12:57:03;;;;;;;3.10;2.90;;;;;;;;;;5103387;28;20924;-76
2023/06/12 12:59:31;;;;;;;2.85;2.65;;;;;;;;;;5101180;28;20429;-73
2023/06/12 13:01:59;;;;;;;2.70;2.60;;;;;;;;;;5100338;28;20503;-73
2023/06/12 13:04:26;;;;;;;2.70;2.60;;;;;;;;;;5102569;28;20431;-73
2023/06/12 13:06:53;;;;;;;2.50;2.40;;;;;;;;;;5102188;28;20800;-73
2023/06/12 13:09:20;;;;;;;2.40;2.30;;;;;;;;;;5095817;28;20430;-73
2023/06/12 13:11:48;;;;;;;2.00;1.90;;;;;;;;;;5108352;28;20404;-74
2023/06/12 13:14:15;;;;;;;2.30;2.20;;;;;;;;;;5105036;28;20414;-73
2023/06/12 13:16:42;;;;;;;2.70;2.50;;;;;;;;;;5103699;28;20462;-72
2023/06/12 13:19:10;;;;;;;2.70;2.50;;;;;;;;;;5107605;28;20439;-72
2023/06/12 13:21:39;;;;;;;3.00;2.80;;;;;;;;;;5108550;28;20443;-72
2023/06/12 13:24:06;;;;;;;3.30;3.00;;;;;;;;;;5103289;28;20453;-72
2023/06/12 13:26:34;;;;;;;3.30;3.10;;;;;;;;;;5105781;28;20431;-73
2023/06/12 13:29:01;;;;;;;3.90;3.70;;;;;;;;;;5096825;28;21008;-72
2023/06/12 13:31:28;;;;;;;3.90;3.60;;;;;;;;;;5102191;28;20424;-71
2023/06/12 13:33:55;;;;;;;4.20;3.90;;;;;;;;;;5093983;28;20884;-72
2023/06/12 13:36:24;;;;;;;4.30;4.00;;;;;;;;;;5103243;28;20913;-72
2023/06/12 13:38:51;;;;;;;4.47;4.10;;;;;;;;;;5103065;28;20464;-74
2023/06/12 13:41:18;;;;;;;4.10;3.80;;;;;;;;;;5106615;28;20794;-71
2023/06/12 13:43:46;;;;;;;4.13;3.88;;;;;;;;;;5114089;28;20431;-72
2023/06/12 13:46:13;;;;;;;4.30;4.00;;;;;;;;;;5120957;28;20451;-71
2023/06/12 13:48:40;;;;;;;4.00;3.70;;;;;;;;;;5099353;28;20421;-72
2023/06/12 13:51:07;;;;;;;4.07;3.78;;;;;;;;;;5090742;28;20429;-72
2023/06/12 13:53:35;;;;;;;4.35;4.10;;;;;;;;;;5103330;28;20435;-73
2023/06/12 13:56:03;;;;;;;4.05;3.75;;;;;;;;;;5104548;28;20428;-72
2023/06/12 13:58:31;;;;;;;4.40;4.10;;;;;;;;;;5108054;28;20432;-72
2023/06/12 14:00:58;;;;;;;4.47;4.07;;;;;;;;;;5109474;28;20429;-71
2023/06/12 14:03:26;;;;;;;4.10;3.80;;;;;;;;;;5121947;28;20463;-71
2023/06/12 14:05:53;;;;;;;4.35;4.05;;;;;;;;;;5103102;28;20950;-72
2023/06/12 14:08:20;;;;;;;4.45;4.15;;;;;;;;;;5106321;28;20440;-72
2023/06/12 14:10:49;;;;;;;4.78;4.47;;;;;;;;;;5108077;28;20424;-73
2023/06/12 14:13:16;;;;;;;5.00;4.60;;;;;;;;;;5093013;28;20449;-71
2023/06/12 14:15:43;;;;;;;4.47;4.07;;;;;;;;;;5110636;28;20511;-72
2023/06/12 14:18:10;;;;;;;4.65;4.30;;;;;;;;;;5111840;28;20412;-73
2023/06/12 14:20:37;;;;;;;4.50;4.20;;;;;;;;;;5097442;28;20427;-72
2023/06/12 14:23:04;;;;;;;4.35;4.05;;;;;;;;;;5098162;28;20430;-71
2023/06/12 14:25:33;;;;;;;4.03;3.72;;;;;;;;;;5097166;27;20524;-72
2023/06/12 14:28:01;;;;;;;4.28;3.97;;;;;;;;;;5101924;27;20430;-70
2023/06/12 14:30:28;;;;;;;4.20;3.80;;;;;;;;;;5102660;27;20451;-70
2023/06/12 14:32:56;;;;;;;5.00;4.60;;;;;;;;;;5107759;28;20431;-70
2023/06/12 14:35:23;;;;;;;4.60;4.30;;;;;;;;;;5110733;28;20426;-70
2023/06/12 14:37:50;;;;;;;4.72;4.43;;;;;;;;;;5107964;27;20437;-69
2023/06/12 14:40:18;;;;;;;4.70;4.30;;;;;;;;;;5101852;27;20459;-70
2023/06/12 14:42:45;;;;;;;4.70;4.30;;;;;;;;;;5102571;27;20428;-70
2023/06/12 14:45:13;;;;;;;5.47;4.18;;;;;;;;;;5102706;27;20435;-70
2023/06/12 14:47:40;;;;;;;4.53;4.22;;;;;;;;;;5103598;27;20447;-70
2023/06/12 14:50:07;;;;;;;4.70;4.30;;;;;;;;;;5096396;28;20440;-71